Time;durP1;ratioP1;P1;durP2;ratioP2;P2;SDS_P1;SDS_P2;PMS_P1;PMS_P2;Temp;Humidity;BMP_temperature;BMP_pressure;BME280_temperature;BME280_humidity;BME280_pressure;Samples;Min_cycle;Max_cycle;Signal;HPM_P1;HPM_P2
2023/03/10 05:20:12;;;;;;;16.42;5.18;;;12.80;56.70;;;;;;4779501;29;20095;-76
2023/03/10 05:22:38;;;;;;;13.27;4.25;;;12.70;56.80;;;;;;4775340;30;20063;-73
2023/03/10 05:25:04;;;;;;;15.00;4.53;;;12.90;57.10;;;;;;4774031;30;20051;-76
2023/03/10 05:27:32;;;;;;;21.70;4.40;;;13.00;57.40;;;;;;4775224;30;20059;-74
2023/03/10 05:29:58;;;;;;;38.20;7.05;;;13.10;57.50;;;;;;4759728;30;20426;-73
2023/03/10 05:32:24;;;;;;;22.60;4.78;;;13.20;57.70;;;;;;4774839;30;20142;-74
2023/03/10 05:34:50;;;;;;;11.77;5.18;;;13.30;57.70;;;;;;4775131;30;20134;-77
2023/03/10 05:37:16;;;;;;;24.15;5.63;;;13.40;57.70;;;;;;4774907;30;20060;-76
2023/03/10 05:39:42;;;;;;;21.88;5.13;;;13.40;57.80;;;;;;4773655;30;20137;-75
2023/03/10 05:42:11;;;;;;;25.48;5.75;;;13.50;57.90;;;;;;4773628;30;20059;-78
2023/03/10 05:44:37;;;;;;;19.13;5.68;;;13.50;58.20;;;;;;4775249;30;20075;-75
2023/03/10 05:47:04;;;;;;;20.55;5.68;;;13.60;58.40;;;;;;4744700;30;20129;-74
2023/03/10 05:49:30;;;;;;;29.05;6.43;;;13.70;58.70;;;;;;4774881;30;20062;-74
2023/03/10 05:51:56;;;;;;;21.05;5.63;;;13.70;58.70;;;;;;4773891;30;20055;-76
2023/03/10 05:54:22;;;;;;;35.05;6.38;;;13.70;59.10;;;;;;4774311;30;20452;-75
2023/03/10 05:56:47;;;;;;;28.15;5.63;;;13.80;59.20;;;;;;4773882;30;20086;-76
2023/03/10 05:59:13;;;;;;;32.53;6.93;;;13.90;59.30;;;;;;4775313;30;20348;-75
2023/03/10 06:01:39;;;;;;;24.63;6.35;;;14.00;59.00;;;;;;4774093;30;20060;-71
2023/03/10 06:04:05;;;;;;;36.80;7.47;;;14.00;59.70;;;;;;4774383;30;20184;-72
2023/03/10 06:06:31;;;;;;;34.92;6.80;;;14.10;59.40;;;;;;4774055;30;20456;-74
2023/03/10 06:08:57;;;;;;;29.83;5.85;;;14.10;59.60;;;;;;4774109;30;20056;-73
2023/03/10 06:11:23;;;;;;;37.78;7.57;;;14.10;59.60;;;;;;4773828;30;20055;-75
2023/03/10 06:13:48;;;;;;;38.22;6.60;;;14.20;59.70;;;;;;4773548;30;20073;-75
2023/03/10 06:16:16;;;;;;;34.15;8.07;;;14.20;60.10;;;;;;4774337;30;20051;-72
2023/03/10 06:18:41;;;;;;;42.45;7.90;;;14.30;60.70;;;;;;4773187;30;20068;-73
2023/03/10 06:21:10;;;;;;;35.50;5.82;;;14.30;60.70;;;;;;4788222;30;20071;-73
2023/03/10 06:23:36;;;;;;;36.33;6.90;;;14.40;60.80;;;;;;4792835;30;20043;-73
2023/03/10 06:26:12;;;;;;;40.08;7.32;;;14.50;60.80;;;;;;4762041;30;20055;-74
2023/03/10 06:28:40;;;;;;;33.85;8.55;;;14.50;60.70;;;;;;4790716;30;20052;-74
2023/03/10 06:31:12;;;;;;;25.45;8.60;;;14.50;59.00;;;;;;4784588;30;20117;-75
2023/03/10 06:33:38;;;;;;;12.93;7.35;;;14.60;57.50;;;;;;4773657;30;20067;-75
2023/03/10 06:36:04;;;;;;;17.33;8.70;;;14.20;55.30;;;;;;4772629;30;20051;-74
2023/03/10 06:38:30;;;;;;;17.33;8.98;;;14.30;55.30;;;;;;4791855;30;20062;-76
2023/03/10 06:40:57;;;;;;;15.82;7.03;;;14.20;55.30;;;;;;4792064;30;20059;-77
2023/03/10 06:43:22;;;;;;;17.25;7.18;;;14.30;56.00;;;;;;4790294;30;20345;-73
2023/03/10 06:45:49;;;;;;;23.67;7.78;;;14.40;56.70;;;;;;4787607;30;20064;-72
2023/03/10 06:48:15;;;;;;;19.45;7.63;;;14.40;57.30;;;;;;4761729;30;20447;-76
2023/03/10 06:50:42;;;;;;;20.70;6.72;;;14.40;57.30;;;;;;4792225;30;20417;-77
2023/03/10 06:53:09;;;;;;;17.35;6.50;;;14.50;56.80;;;;;;4791711;30;20059;-74
2023/03/10 06:55:36;;;;;;;17.30;6.28;;;14.50;56.90;;;;;;4791877;30;20062;-75
2023/03/10 06:58:01;;;;;;;10.50;5.75;;;14.50;57.00;;;;;;4791804;30;20063;-75
2023/03/10 07:00:28;;;;;;;10.85;5.78;;;14.40;57.00;;;;;;4789875;30;20419;-74
2023/03/10 07:02:54;;;;;;;9.82;5.53;;;14.40;57.00;;;;;;4786654;30;20052;-76
2023/03/10 07:05:21;;;;;;;10.52;5.15;;;14.40;57.10;;;;;;4773435;30;20076;-75
2023/03/10 07:07:49;;;;;;;11.70;5.97;;;14.30;57.10;;;;;;4773736;30;20062;-78
2023/03/10 07:10:16;;;;;;;12.10;5.45;;;14.30;57.10;;;;;;4773588;30;20048;-75
2023/03/10 07:12:42;;;;;;;10.50;5.25;;;14.30;57.30;;;;;;4774703;30;20047;-76
2023/03/10 07:15:09;;;;;;;9.27;5.90;;;14.20;57.00;;;;;;4790934;30;20058;-77
2023/03/10 07:17:34;;;;;;;11.55;5.82;;;14.20;56.70;;;;;;4775781;30;20051;-74
2023/03/10 07:20:00;;;;;;;9.85;5.75;;;14.10;56.40;;;;;;4790965;30;20066;-77
2023/03/10 07:22:26;;;;;;;9.30;5.38;;;14.10;56.10;;;;;;4781294;30;20083;-75
2023/03/10 07:24:55;;;;;;;12.65;6.28;;;14.00;55.90;;;;;;4774402;30;20109;-77
2023/03/10 07:27:21;;;;;;;10.70;5.53;;;13.90;56.30;;;;;;4757295;30;20085;-76
2023/03/10 07:29:47;;;;;;;9.40;5.00;;;13.90;56.90;;;;;;4772368;30;20066;-78
2023/03/10 07:32:15;;;;;;;22.58;5.80;;;13.90;57.30;;;;;;4772961;30;20048;-76
2023/03/10 07:34:41;;;;;;;9.02;4.97;;;13.80;57.50;;;;;;4776553;30;20051;-78
2023/03/10 07:37:08;;;;;;;10.93;4.70;;;13.80;57.60;;;;;;4775153;30;20130;-77
2023/03/10 07:39:34;;;;;;;10.82;4.47;;;13.70;58.00;;;;;;4773492;30;20146;-76
2023/03/10 07:42:00;;;;;;;11.05;4.97;;;13.70;58.30;;;;;;4775654;30;20551;-77
2023/03/10 07:44:25;;;;;;;10.13;4.30;;;13.60;58.70;;;;;;4777983;30;20064;-81
2023/03/10 07:46:51;;;;;;;9.80;5.15;;;13.60;59.00;;;;;;4772120;30;20063;-77
2023/03/10 07:49:17;;;;;;;9.60;4.50;;;13.60;59.00;;;;;;4780327;30;20047;-76
2023/03/10 07:51:42;;;;;;;10.52;5.18;;;13.50;59.10;;;;;;4764264;30;20063;-76
2023/03/10 07:54:10;;;;;;;5.88;3.30;;;13.50;59.00;;;;;;4771391;30;20052;-77
2023/03/10 07:56:36;;;;;;;8.80;4.40;;;13.40;58.90;;;;;;4779109;30;20051;-78
2023/03/10 07:59:02;;;;;;;8.50;4.45;;;13.40;59.10;;;;;;4789884;30;20115;-76
2023/03/10 08:01:27;;;;;;;9.10;4.45;;;13.40;59.20;;;;;;4774379;30;20062;-74
2023/03/10 08:03:53;;;;;;;7.80;3.70;;;13.40;59.30;;;;;;4767580;30;20058;-75
2023/03/10 08:06:24;;;;;;;7.88;4.05;;;13.40;59.40;;;;;;4771985;30;20062;-76
2023/03/10 08:08:50;;;;;;;7.30;3.53;;;13.30;59.50;;;;;;4787071;30;20122;-78
2023/03/10 08:11:16;;;;;;;10.27;3.42;;;13.30;59.70;;;;;;4776090;30;20047;-79
2023/03/10 08:13:44;;;;;;;7.95;3.85;;;13.30;59.70;;;;;;4772915;30;20059;-79
2023/03/10 08:16:10;;;;;;;6.68;3.25;;;13.30;60.00;;;;;;4772043;30;20363;-79
2023/03/10 08:18:36;;;;;;;6.40;3.20;;;13.30;60.10;;;;;;4772485;30;20066;-77
2023/03/10 08:21:04;;;;;;;6.57;3.40;;;13.30;60.20;;;;;;4782247;30;20467;-78
2023/03/10 08:23:30;;;;;;;7.00;3.28;;;13.30;60.30;;;;;;4790292;30;20047;-80
2023/03/10 08:26:02;;;;;;;4.03;2.92;;;13.30;60.40;;;;;;4790369;30;20119;-80
2023/03/10 08:28:29;;;;;;;10.27;2.90;;;13.30;60.70;;;;;;4771064;30;20428;-81
2023/03/10 08:30:58;;;;;;;8.30;3.10;;;13.30;60.70;;;;;;4757251;30;20055;-79
2023/03/10 08:33:27;;;;;;;7.75;3.08;;;13.40;60.80;;;;;;4742716;30;20134;-79
2023/03/10 08:36:12;;;;;;;12.23;3.10;;;13.50;60.70;;;;;;4741496;30;20055;-81
2023/03/10 08:38:38;;;;;;;8.85;2.65;;;13.60;61.10;;;;;;4757996;30;20349;-79
2023/03/10 08:41:14;;;;;;;7.95;2.65;;;13.70;60.70;;;;;;4771373;30;20121;-79
2023/03/10 08:43:40;;;;;;;7.95;2.53;;;13.80;60.40;;;;;;4756229;30;20423;-80
2023/03/10 08:46:07;;;;;;;10.88;2.70;;;13.90;60.30;;;;;;4773145;30;20059;-78
2023/03/10 08:48:32;;;;;;;7.32;3.00;;;14.00;60.10;;;;;;4781833;30;20383;-77
2023/03/10 08:50:58;;;;;;;12.63;3.10;;;14.00;60.00;;;;;;4772694;30;20058;-78
2023/03/10 08:53:24;;;;;;;13.07;3.13;;;14.00;60.10;;;;;;4762675;30;20056;-78
2023/03/10 08:55:50;;;;;;;5.63;2.40;;;14.10;60.10;;;;;;4759895;30;20422;-77
2023/03/10 08:58:18;;;;;;;8.90;2.85;;;14.10;60.00;;;;;;4775028;30;20039;-82
2023/03/10 09:01:19;;;;;;;7.40;2.40;;;14.20;59.90;;;;;;4754402;30;20127;-80
2023/03/10 09:03:45;;;;;;;5.82;2.58;;;14.30;59.80;;;;;;4773007;30;20054;-80
2023/03/10 09:06:14;;;;;;;10.60;2.75;;;14.40;59.60;;;;;;4786192;30;20066;-79
2023/03/10 09:08:41;;;;;;;9.38;2.72;;;14.40;59.50;;;;;;4755259;30;20048;-77
2023/03/10 09:11:13;;;;;;;14.25;2.70;;;14.50;59.70;;;;;;4754433;30;20114;-79
2023/03/10 09:13:39;;;;;;;7.70;3.00;;;14.50;59.50;;;;;;4767643;30;20086;-80
2023/03/10 09:16:04;;;;;;;17.25;3.13;;;14.60;59.50;;;;;;4759290;30;20063;-79
2023/03/10 09:18:30;;;;;;;9.70;2.83;;;14.60;59.40;;;;;;4777776;30;20056;-79
2023/03/10 09:20:56;;;;;;;10.65;3.13;;;14.60;59.30;;;;;;4766659;30;20065;-76
2023/03/10 09:23:22;;;;;;;7.80;2.38;;;14.70;59.20;;;;;;4771551;30;20087;-78
2023/03/10 09:25:48;;;;;;;7.03;2.47;;;14.80;59.10;;;;;;4757018;30;20072;-81
2023/03/10 09:28:13;;;;;;;10.57;2.17;;;14.80;58.90;;;;;;4742462;30;20044;-79
2023/03/10 09:30:41;;;;;;;15.15;2.85;;;14.80;58.70;;;;;;4782168;30;20447;-79
2023/03/10 09:33:19;;;;;;;8.00;2.63;;;14.90;58.60;;;;;;4772897;30;20051;-79
2023/03/10 09:35:45;;;;;;;11.05;2.80;;;14.90;58.50;;;;;;4772535;30;20086;-80
2023/03/10 09:38:11;;;;;;;7.97;2.45;;;14.90;58.70;;;;;;4762104;30;20051;-78
2023/03/10 09:40:41;;;;;;;11.52;3.80;;;15.00;58.60;;;;;;4764389;30;20051;-81
2023/03/10 09:43:11;;;;;;;10.90;3.25;;;15.10;58.80;;;;;;4759267;30;20143;-77
2023/03/10 09:46:18;;;;;;;7.90;2.85;;;15.10;58.80;;;;;;4772296;30;20371;-79
2023/03/10 09:49:09;;;;;;;6.55;3.30;;;15.10;58.80;;;;;;4761701;30;20056;-79
2023/03/10 09:51:39;;;;;;;6.18;2.50;;;15.10;59.10;;;;;;4755378;30;20105;-80
2023/03/10 09:54:32;;;;;;;12.55;3.42;;;15.10;59.20;;;;;;4740890;30;20051;-80
2023/03/10 09:56:59;;;;;;;5.78;2.88;;;15.10;59.50;;;;;;4744909;30;20058;-79
2023/03/10 09:59:36;;;;;;;7.05;2.55;;;15.00;59.50;;;;;;4792261;30;20043;-81
2023/03/10 10:02:20;;;;;;;7.45;3.08;;;15.00;59.70;;;;;;4775222;30;20050;-80
2023/03/10 10:04:51;;;;;;;8.15;3.42;;;15.00;59.70;;;;;;4761537;30;20047;-78
2023/03/10 10:07:23;;;;;;;6.97;2.80;;;14.90;59.70;;;;;;4754966;30;20367;-79
2023/03/10 10:10:13;;;;;;;7.65;2.70;;;14.90;59.70;;;;;;4751919;30;20430;-80
2023/03/10 10:12:43;;;;;;;6.05;3.55;;;14.90;59.80;;;;;;4758693;30;20475;-79
2023/03/10 10:15:17;;;;;;;7.72;5.57;;;14.90;59.10;;;;;;4774317;30;20040;-79
2023/03/10 10:18:01;;;;;;;7.10;5.50;;;14.90;57.10;;;;;;4776288;30;20380;-78
2023/03/10 10:20:33;;;;;;;7.70;4.82;;;14.80;54.20;;;;;;4761466;30;20055;-78
2023/03/10 10:22:59;;;;;;;7.20;4.88;;;14.70;54.10;;;;;;4776291;30;20058;-79
2023/03/10 10:25:30;;;;;;;9.75;5.07;;;14.70;54.50;;;;;;4792051;30;20051;-81
2023/03/10 10:27:59;;;;;;;7.22;4.90;;;14.60;54.60;;;;;;4775924;30;20047;-80
2023/03/10 10:30:34;;;;;;;5.15;4.65;;;14.60;54.60;;;;;;4759946;30;20056;-79
2023/03/10 10:33:01;;;;;;;6.13;4.50;;;14.60;54.70;;;;;;4758673;30;20052;-78
2023/03/10 10:35:34;;;;;;;8.32;4.63;;;14.50;54.60;;;;;;4757848;30;20082;-80
2023/03/10 10:38:04;;;;;;;5.47;4.30;;;14.50;54.50;;;;;;4772769;30;20039;-79
2023/03/10 10:40:55;;;;;;;5.32;4.45;;;14.50;54.70;;;;;;4765096;30;20714;-78
2023/03/10 10:43:21;;;;;;;5.95;4.38;;;14.40;54.60;;;;;;4743425;30;20047;-78
2023/03/10 10:46:04;;;;;;;6.80;4.32;;;14.40;54.70;;;;;;4772273;30;20052;-80
2023/03/10 10:48:44;;;;;;;6.10;4.28;;;14.30;54.80;;;;;;4743559;30;20189;-79
2023/03/10 10:51:33;;;;;;;5.40;4.10;;;14.20;55.30;;;;;;4743790;30;20047;-80
2023/03/10 10:54:18;;;;;;;6.88;4.50;;;14.20;56.00;;;;;;4757680;30;20143;-78
2023/03/10 10:57:16;;;;;;;6.78;4.65;;;14.20;56.30;;;;;;4725806;30;20507;-80
2023/03/10 10:59:41;;;;;;;7.80;3.83;;;14.10;56.90;;;;;;4755892;30;20047;-79
2023/03/10 11:02:31;;;;;;;7.18;3.90;;;14.10;57.20;;;;;;4766375;30;20040;-78
2023/03/10 11:05:14;;;;;;;7.70;4.13;;;14.00;57.30;;;;;;4756853;30;20371;-79
2023/03/10 11:07:39;;;;;;;8.32;3.63;;;14.00;57.30;;;;;;4791403;30;20051;-79
2023/03/10 11:10:20;;;;;;;6.20;3.80;;;14.00;57.50;;;;;;4761004;30;20404;-80
2023/03/10 11:12:54;;;;;;;6.47;3.65;;;14.00;57.60;;;;;;4775814;30;20421;-78
2023/03/10 11:15:32;;;;;;;8.68;3.67;;;14.00;57.80;;;;;;4771868;30;20110;-79
2023/03/10 11:18:06;;;;;;;9.52;3.25;;;14.00;57.90;;;;;;4775737;30;20404;-78
2023/03/10 11:20:35;;;;;;;16.50;4.03;;;14.00;58.30;;;;;;4782357;30;20056;-80
2023/03/10 11:23:16;;;;;;;12.88;3.22;;;14.00;58.30;;;;;;4773121;30;20055;-79
2023/03/10 11:25:48;;;;;;;8.10;3.45;;;14.00;58.40;;;;;;4772551;30;20494;-78
2023/03/10 11:28:38;;;;;;;7.10;3.35;;;14.00;58.50;;;;;;4773233;30;20079;-77
2023/03/10 11:31:31;;;;;;;10.07;3.10;;;13.90;58.50;;;;;;4771536;30;20508;-79
2023/03/10 11:34:06;;;;;;;5.03;2.70;;;13.90;58.70;;;;;;4773505;30;20040;-78
2023/03/10 11:36:40;;;;;;;9.90;3.58;;;13.90;58.70;;;;;;4773142;30;20055;-79
2023/03/10 11:39:32;;;;;;;7.93;3.05;;;13.90;58.90;;;;;;4757236;30;20093;-80
2023/03/10 11:42:27;;;;;;;6.18;2.55;;;13.80;59.10;;;;;;4763816;30;20055;-80
2023/03/10 11:44:56;;;;;;;4.90;2.55;;;13.80;59.30;;;;;;4754211;30;20078;-79
2023/03/10 11:47:44;;;;;;;7.57;3.13;;;13.80;59.40;;;;;;4756432;30;20456;-78
2023/03/10 11:50:41;;;;;;;5.75;2.88;;;13.80;59.40;;;;;;4780285;30;20062;-80
2023/03/10 11:53:22;;;;;;;8.40;3.20;;;13.80;59.20;;;;;;4775094;30;20047;-75
2023/03/10 11:55:49;;;;;;;7.03;2.72;;;13.70;59.70;;;;;;4779777;30;20051;-80
2023/03/10 11:58:40;;;;;;;6.50;2.50;;;13.70;59.00;;;;;;4778916;30;20396;-77
2023/03/10 12:01:15;;;;;;;5.78;2.47;;;13.70;59.00;;;;;;4776184;30;20055;-77
2023/03/10 12:03:58;;;;;;;6.53;2.50;;;13.70;59.00;;;;;;4773635;30;20061;-76
2023/03/10 12:06:51;;;;;;;5.05;2.50;;;13.70;59.00;;;;;;4759597;30;20167;-77
2023/03/10 12:09:26;;;;;;;4.10;2.28;;;13.60;59.00;;;;;;4753028;30;20131;-79
2023/03/10 12:11:53;;;;;;;2.75;1.80;;;13.70;59.20;;;;;;4758133;30;20056;-80
2023/03/10 12:14:19;;;;;;;5.78;2.50;;;13.60;59.30;;;;;;4771798;30;20085;-78
2023/03/10 12:16:46;;;;;;;3.22;2.25;;;13.60;59.40;;;;;;4753963;30;20062;-79
2023/03/10 12:19:12;;;;;;;5.45;2.47;;;13.60;59.60;;;;;;4770066;30;20060;-79
2023/03/10 12:21:37;;;;;;;5.93;2.33;;;13.60;59.70;;;;;;4773601;30;20082;-78
2023/03/10 12:24:04;;;;;;;5.93;2.33;;;13.60;59.70;;;;;;4773387;30;20385;-77
2023/03/10 12:26:43;;;;;;;4.03;2.33;;;13.60;60.00;;;;;;4762362;30;20093;-79
2023/03/10 12:29:21;;;;;;;6.78;2.30;;;13.60;60.10;;;;;;4746498;30;20047;-78
2023/03/10 12:31:50;;;;;;;5.82;2.67;;;13.60;60.10;;;;;;4790286;30;20055;-80
2023/03/10 12:34:22;;;;;;;4.65;2.50;;;13.50;60.20;;;;;;4777310;30;20062;-78
2023/03/10 12:37:02;;;;;;;4.40;2.22;;;13.50;60.20;;;;;;4773254;30;20069;-77
2023/03/10 12:39:31;;;;;;;5.28;2.10;;;13.50;60.10;;;;;;4773623;30;20062;-78
2023/03/10 12:42:21;;;;;;;5.97;2.35;;;13.50;60.10;;;;;;4773790;30;20059;-78
2023/03/10 12:44:47;;;;;;;4.93;2.00;;;13.50;60.10;;;;;;4773384;30;20475;-79
2023/03/10 12:47:23;;;;;;;5.07;2.38;;;13.50;60.10;;;;;;4757841;30;20052;-79
2023/03/10 12:50:04;;;;;;;3.63;2.30;;;13.50;60.20;;;;;;4782376;30;20486;-79
2023/03/10 12:52:34;;;;;;;3.03;1.95;;;13.40;60.30;;;;;;4758769;30;20055;-79
2023/03/10 12:55:25;;;;;;;3.58;2.15;;;13.50;60.30;;;;;;4775228;30;20460;-80
2023/03/10 12:58:15;;;;;;;3.72;2.20;;;13.40;60.30;;;;;;4756911;30;20083;-79
2023/03/10 13:00:49;;;;;;;3.30;1.83;;;13.40;60.20;;;;;;4789901;30;20052;-78
2023/03/10 13:03:36;;;;;;;2.78;1.70;;;13.40;60.00;;;;;;4789356;30;20051;-78
2023/03/10 13:06:19;;;;;;;3.97;1.80;;;13.40;59.80;;;;;;4773221;30;20121;-78
2023/03/10 13:08:49;;;;;;;2.88;1.90;;;13.40;59.70;;;;;;4789803;30;20422;-79
2023/03/10 13:11:29;;;;;;;3.13;1.70;;;13.40;59.80;;;;;;4772630;30;20052;-80
2023/03/10 13:14:03;;;;;;;2.85;1.90;;;13.40;59.70;;;;;;4771971;30;20051;-79
2023/03/10 13:16:30;;;;;;;3.30;1.85;;;13.40;59.70;;;;;;4739375;30;20044;-78
2023/03/10 13:18:55;;;;;;;4.40;1.65;;;13.40;59.60;;;;;;4756464;30;20189;-80
2023/03/10 13:21:35;;;;;;;4.15;1.65;;;13.40;59.60;;;;;;4788107;30;20094;-78
2023/03/10 13:24:03;;;;;;;2.53;1.50;;;13.40;60.10;;;;;;4789659;30;20062;-78
2023/03/10 13:26:29;;;;;;;4.55;1.45;;;13.40;59.50;;;;;;4757351;29;20050;-77
2023/03/10 13:28:56;;;;;;;4.05;1.58;;;13.40;59.50;;;;;;4792989;30;20051;-80
2023/03/10 13:31:26;;;;;;;1.75;1.30;;;13.40;59.40;;;;;;4792535;30;20063;-80
2023/03/10 13:33:53;;;;;;;1.98;1.50;;;13.40;59.40;;;;;;4764096;30;20059;-80
2023/03/10 13:36:19;;;;;;;3.35;1.40;;;13.40;59.30;;;;;;4776144;30;20132;-79
2023/03/10 13:38:45;;;;;;;2.00;1.55;;;13.40;59.30;;;;;;4775220;30;20460;-79
2023/03/10 13:41:11;;;;;;;4.25;1.50;;;13.40;59.40;;;;;;4775213;30;20130;-78
2023/03/10 13:43:38;;;;;;;5.00;1.23;;;13.40;59.40;;;;;;4743673;30;20055;-75
2023/03/10 13:46:29;;;;;;;4.55;1.25;;;13.40;59.40;;;;;;4775483;30;20051;-82
2023/03/10 13:49:08;;;;;;;4.53;1.35;;;13.50;59.60;;;;;;4759022;30;20375;-81
2023/03/10 13:51:35;;;;;;;5.80;1.80;;;13.50;59.50;;;;;;4743923;30;20130;-78
2023/03/10 13:54:23;;;;;;;7.45;1.60;;;13.60;58.70;;;;;;4744508;30;20039;-76
2023/03/10 13:56:55;;;;;;;9.73;1.70;;;13.60;58.50;;;;;;4770794;30;20059;-81
2023/03/10 13:59:26;;;;;;;11.75;1.52;;;13.60;58.40;;;;;;4792873;30;20070;-78
2023/03/10 14:01:54;;;;;;;8.88;1.83;;;13.60;58.50;;;;;;4792659;30;20043;-78
2023/03/10 14:04:40;;;;;;;12.00;1.90;;;13.70;58.70;;;;;;4776669;30;20527;-77
2023/03/10 14:07:09;;;;;;;6.32;1.73;;;13.70;59.60;;;;;;4790768;30;20055;-78
2023/03/10 14:09:35;;;;;;;9.15;1.75;;;13.70;59.70;;;;;;4776546;30;20055;-77
2023/03/10 14:12:01;;;;;;;9.07;1.70;;;13.70;60.20;;;;;;4792442;30;20115;-78
2023/03/10 14:14:32;;;;;;;14.43;1.95;;;13.80;60.40;;;;;;4792307;30;20058;-77
2023/03/10 14:17:07;;;;;;;12.70;2.38;;;13.90;60.50;;;;;;4790650;30;20047;-77
2023/03/10 14:19:37;;;;;;;11.75;1.85;;;14.00;60.50;;;;;;4762751;30;20054;-78
2023/03/10 14:22:23;;;;;;;9.23;1.90;;;14.10;60.60;;;;;;4754854;30;20055;-77
2023/03/10 14:24:49;;;;;;;10.02;1.60;;;14.20;60.60;;;;;;4789032;30;20121;-78
2023/03/10 14:27:15;;;;;;;11.77;1.48;;;14.30;60.60;;;;;;4748247;30;20467;-77
2023/03/10 14:29:55;;;;;;;10.70;1.30;;;14.40;60.60;;;;;;4773624;30;20060;-82
2023/03/10 14:32:23;;;;;;;9.63;1.75;;;14.40;60.50;;;;;;4764078;30;20063;-77
2023/03/10 14:34:48;;;;;;;10.93;1.40;;;14.40;60.30;;;;;;4781610;30;20051;-79
2023/03/10 14:37:14;;;;;;;12.05;2.00;;;14.50;60.20;;;;;;4785628;30;20049;-79
2023/03/10 14:39:40;;;;;;;8.63;2.13;;;14.50;60.30;;;;;;4785837;29;20126;-79
2023/03/10 14:42:17;;;;;;;9.82;1.55;;;14.50;60.30;;;;;;4781404;30;20122;-78
2023/03/10 14:44:43;;;;;;;12.98;1.52;;;14.50;60.50;;;;;;4773767;30;20054;-76
2023/03/10 14:47:09;;;;;;;12.43;2.53;;;14.50;60.50;;;;;;4773674;30;20453;-80
2023/03/10 14:49:35;;;;;;;11.18;1.48;;;14.50;60.40;;;;;;4774516;30;20143;-78
2023/03/10 14:52:01;;;;;;;11.60;1.92;;;14.60;60.60;;;;;;4773869;30;20110;-80
2023/03/10 14:54:29;;;;;;;12.35;1.95;;;14.60;60.60;;;;;;4770119;30;20056;-81
2023/03/10 14:56:58;;;;;;;18.67;2.97;;;14.60;60.50;;;;;;4754466;30;20135;-84
2023/03/10 15:02:23;;;;;;;20.65;2.90;;;14.60;61.20;;;;;;4775163;30;20071;-80
2023/03/10 15:04:49;;;;;;;16.98;2.78;;;14.70;61.30;;;;;;4758922;30;20098;-82
2023/03/10 15:07:17;;;;;;;20.02;2.75;;;14.80;61.50;;;;;;4750508;30;20079;-81
2023/03/10 15:13:26;;;;;;;16.65;3.33;;;14.90;62.10;;;;;;4725464;30;20067;-80
2023/03/10 15:15:52;;;;;;;24.52;3.53;;;14.90;62.10;;;;;;4758813;30;20055;-82
2023/03/10 15:18:21;;;;;;;21.63;2.38;;;15.00;62.00;;;;;;4760499;30;20109;-80
2023/03/10 15:20:47;;;;;;;25.67;3.70;;;15.00;62.10;;;;;;4755164;30;20060;-77
2023/03/10 15:23:13;;;;;;;21.58;3.33;;;15.00;62.10;;;;;;4742606;30;20060;-80
2023/03/10 15:25:39;;;;;;;15.20;2.47;;;15.10;62.10;;;;;;4760668;30;20047;-76
2023/03/10 15:28:05;;;;;;;17.95;2.47;;;15.10;62.00;;;;;;4772978;30;20059;-82
2023/03/10 15:30:35;;;;;;;14.88;2.35;;;15.20;61.80;;;;;;4757342;30;20056;-83
2023/03/10 15:33:02;;;;;;;22.15;2.30;;;15.20;61.80;;;;;;4773072;30;20079;-82
2023/03/10 15:35:28;;;;;;;14.52;2.28;;;15.20;61.80;;;;;;4774005;30;20048;-78
2023/03/10 15:37:55;;;;;;;22.65;3.03;;;15.10;61.80;;;;;;4756872;30;20074;-78
2023/03/10 15:40:27;;;;;;;19.35;4.05;;;15.10;62.00;;;;;;4772376;30;20047;-82
2023/03/10 15:42:56;;;;;;;23.80;5.15;;;15.20;62.20;;;;;;4748516;30;20143;-80
2023/03/10 15:45:28;;;;;;;26.40;6.63;;;15.20;62.20;;;;;;4770677;30;20047;-79
2023/03/10 15:47:55;;;;;;;19.75;6.30;;;15.20;62.20;;;;;;4785774;30;20055;-81
2023/03/10 15:50:21;;;;;;;19.88;6.07;;;15.20;62.40;;;;;;4788484;29;20047;-77
2023/03/10 15:52:49;;;;;;;28.95;7.43;;;15.20;62.30;;;;;;4790177;30;20120;-77
2023/03/10 15:55:15;;;;;;;25.17;6.60;;;15.20;62.50;;;;;;4743936;30;20128;-81
2023/03/10 15:57:42;;;;;;;19.75;6.80;;;15.20;62.80;;;;;;4756809;30;20040;-76
2023/03/10 16:00:18;;;;;;;20.90;6.82;;;15.20;62.90;;;;;;4770087;30;20122;-84
2023/03/10 16:02:44;;;;;;;25.45;6.32;;;15.20;63.20;;;;;;4780433;30;20457;-83
2023/03/10 16:05:15;;;;;;;20.80;6.68;;;15.30;63.00;;;;;;4742281;30;20044;-80
2023/03/10 16:07:50;;;;;;;23.70;5.50;;;15.30;63.30;;;;;;4743543;30;20209;-83
2023/03/10 16:10:18;;;;;;;29.98;5.85;;;15.20;62.50;;;;;;4743302;30;20531;-82
2023/03/10 16:12:46;;;;;;;26.08;6.65;;;15.20;61.80;;;;;;4756866;30;20146;-81
2023/03/10 16:15:13;;;;;;;23.95;5.35;;;15.30;61.70;;;;;;4772397;30;20375;-78
2023/03/10 16:17:47;;;;;;;21.27;6.30;;;15.30;61.50;;;;;;4756558;30;20051;-79
2023/03/10 16:20:17;;;;;;;21.38;4.65;;;15.20;61.60;;;;;;4773435;30;20055;-80
2023/03/10 16:22:44;;;;;;;26.08;5.03;;;15.20;61.70;;;;;;4773418;30;20113;-80
2023/03/10 16:25:15;;;;;;;22.67;5.03;;;15.30;61.90;;;;;;4756321;30;20048;-77
2023/03/10 16:27:45;;;;;;;20.60;4.68;;;15.30;62.90;;;;;;4772232;30;20053;-78
2023/03/10 16:30:13;;;;;;;26.38;5.22;;;15.30;63.40;;;;;;4768063;30;20081;-80
2023/03/10 16:32:39;;;;;;;18.88;4.60;;;15.30;63.80;;;;;;4789791;30;20104;-79
2023/03/10 16:35:05;;;;;;;15.63;4.28;;;15.30;64.00;;;;;;4774787;30;20055;-79
2023/03/10 16:37:31;;;;;;;19.25;3.78;;;15.30;64.20;;;;;;4759701;30;20142;-82
2023/03/10 16:39:57;;;;;;;20.95;4.55;;;15.30;64.30;;;;;;4780586;30;20127;-79
2023/03/10 16:42:25;;;;;;;26.95;4.53;;;15.30;64.60;;;;;;4756621;30;20079;-79
2023/03/10 16:44:54;;;;;;;21.38;3.97;;;15.30;64.60;;;;;;4772427;30;20063;-80
2023/03/10 16:47:20;;;;;;;15.77;3.92;;;15.30;64.20;;;;;;4756374;30;20091;-78
2023/03/10 16:49:46;;;;;;;17.98;3.13;;;15.20;62.80;;;;;;4763975;30;20085;-80
2023/03/10 16:52:12;;;;;;;23.98;4.10;;;15.20;62.50;;;;;;4757862;30;20048;-81
2023/03/10 16:54:38;;;;;;;9.13;2.08;;;15.20;62.90;;;;;;4755771;30;20051;-82
2023/03/10 16:57:05;;;;;;;11.95;1.27;;;15.10;61.40;;;;;;4756432;30;20051;-83
2023/03/10 16:59:32;;;;;;;8.00;1.48;;;15.10;60.10;;;;;;4773324;30;20535;-80
2023/03/10 17:01:58;;;;;;;7.97;1.80;;;15.00;59.20;;;;;;4772605;30;20067;-79
2023/03/10 17:04:23;;;;;;;6.70;1.00;;;15.00;57.10;;;;;;4745803;30;20200;-81
2023/03/10 17:06:49;;;;;;;3.42;0.73;;;15.00;56.90;;;;;;4760563;30;20064;-79
2023/03/10 17:09:16;;;;;;;4.60;0.80;;;14.90;55.50;;;;;;4764141;30;20416;-80
2023/03/10 17:11:51;;;;;;;5.22;0.50;;;14.90;54.60;;;;;;4778243;30;20443;-80
2023/03/10 17:14:18;;;;;;;3.15;0.73;;;14.80;54.00;;;;;;4792244;30;20086;-80
2023/03/10 17:16:45;;;;;;;6.38;0.80;;;14.70;54.80;;;;;;4764507;30;20055;-82
2023/03/10 17:19:17;;;;;;;7.95;0.90;;;14.60;55.40;;;;;;4759413;30;20443;-79
2023/03/10 17:21:47;;;;;;;8.73;1.48;;;14.60;56.20;;;;;;4776012;30;20154;-79
2023/03/10 17:24:15;;;;;;;13.38;1.25;;;14.50;57.20;;;;;;4759889;30;20150;-80
2023/03/10 17:26:41;;;;;;;10.75;1.40;;;14.50;57.90;;;;;;4759173;30;20051;-80
2023/03/10 17:29:07;;;;;;;11.07;1.48;;;14.50;58.60;;;;;;4773542;30;20052;-80
2023/03/10 17:31:33;;;;;;;8.57;1.00;;;14.50;59.10;;;;;;4759888;30;20056;-80
2023/03/10 17:34:06;;;;;;;11.75;1.50;;;14.40;59.40;;;;;;4759764;30;20051;-79
2023/03/10 17:36:32;;;;;;;8.05;1.13;;;14.40;59.70;;;;;;4759259;30;20064;-79
2023/03/10 19:37:23;;;;;;;16.70;1.13;;;13.40;62.10;;;;;;5624751;24;20054;-71
2023/03/10 19:39:54;;;;;;;11.45;1.35;;;13.30;62.10;;;;;;4844223;29;20061;-84
2023/03/10 19:42:20;;;;;;;4.82;0.63;;;13.30;62.50;;;;;;4824528;29;20058;-78
2023/03/10 19:44:46;;;;;;;3.75;0.70;;;13.40;62.50;;;;;;4829155;29;20060;-77
2023/03/10 19:47:12;;;;;;;9.75;1.27;;;13.40;62.70;;;;;;4845316;29;20092;-76
2023/03/10 19:49:38;;;;;;;9.50;1.00;;;13.30;62.80;;;;;;4843785;29;20065;-75
2023/03/10 19:52:04;;;;;;;4.40;0.60;;;13.40;63.40;;;;;;4845463;29;20136;-73
2023/03/10 19:54:30;;;;;;;3.92;0.60;;;13.40;63.60;;;;;;4845315;29;20077;-74
2023/03/10 19:56:56;;;;;;;7.68;0.70;;;13.40;63.50;;;;;;4845338;29;20057;-79
2023/03/10 19:59:22;;;;;;;5.90;0.90;;;13.30;64.20;;;;;;4845040;29;20061;-77
2023/03/10 20:01:48;;;;;;;6.50;0.70;;;13.30;64.00;;;;;;4845085;29;20157;-79
2023/03/10 20:04:14;;;;;;;9.93;1.05;;;13.30;65.00;;;;;;4843961;29;20061;-77
2023/03/10 20:06:40;;;;;;;7.82;0.55;;;13.30;64.90;;;;;;4844965;29;20049;-78
2023/03/10 20:09:09;;;;;;;6.70;0.60;;;13.30;65.10;;;;;;4844888;29;20057;-78
2023/03/10 20:11:39;;;;;;;4.47;0.60;;;13.30;65.30;;;;;;4844904;29;20365;-76
2023/03/10 20:14:06;;;;;;;14.25;1.30;;;13.30;65.40;;;;;;4844878;29;20374;-78
2023/03/10 20:16:32;;;;;;;8.55;1.23;;;13.30;65.90;;;;;;4843479;29;20049;-78
2023/03/10 20:18:58;;;;;;;2.40;0.70;;;13.30;65.40;;;;;;4845233;29;20046;-77
2023/03/10 20:21:25;;;;;;;3.40;0.68;;;13.20;64.90;;;;;;4843368;29;20461;-76
2023/03/10 20:23:51;;;;;;;5.22;0.73;;;13.20;64.80;;;;;;4844501;29;20056;-78